createdAt,value
2022-11-18T00:00:55.708Z,982.01
2022-11-18T00:01:55.751Z,982.10
2022-11-18T00:02:55.678Z,982.04
2022-11-18T00:03:55.686Z,982.07
2022-11-18T00:04:55.667Z,982.07
2022-11-18T00:05:55.639Z,982.12
2022-11-18T00:06:55.681Z,982.08
2022-11-18T00:07:55.628Z,982.07
2022-11-18T00:08:55.617Z,982.08
2022-11-18T00:09:55.598Z,982.11
2022-11-18T00:10:55.584Z,982.07
2022-11-18T00:11:55.555Z,982.11
2022-11-18T00:12:55.581Z,982.06
2022-11-18T00:13:55.598Z,982.07
2022-11-18T00:14:55.527Z,982.04
2022-11-18T00:15:55.508Z,982.08
2022-11-18T00:16:55.529Z,982.10
2022-11-18T00:17:55.509Z,982.09
2022-11-18T00:18:55.492Z,982.11
2022-11-18T00:19:55.512Z,982.07
2022-11-18T00:20:55.448Z,982.09
2022-11-18T00:21:55.463Z,982.07
2022-11-18T00:22:55.462Z,982.04
2022-11-18T00:23:55.434Z,982.06
2022-11-18T00:24:55.416Z,982.04
2022-11-18T00:25:55.433Z,982.06
2022-11-18T00:26:55.400Z,982.06
2022-11-18T00:27:55.372Z,982.02
2022-11-18T00:28:55.395Z,982.00
2022-11-18T00:29:55.374Z,981.99
2022-11-18T00:30:55.364Z,982.01
2022-11-18T00:31:55.350Z,981.99
2022-11-18T00:32:55.326Z,981.99
2022-11-18T00:33:55.340Z,982.03
2022-11-18T00:34:55.326Z,982.05
2022-11-18T00:35:55.286Z,982.08
2022-11-18T00:36:55.275Z,982.05
2022-11-18T00:37:55.281Z,982.08
2022-11-18T00:38:55.244Z,982.12
2022-11-18T00:39:55.234Z,982.10
2022-11-18T00:40:55.259Z,982.08
2022-11-18T00:41:55.217Z,982.13
2022-11-18T00:42:55.218Z,982.08
2022-11-18T00:43:55.203Z,982.07
2022-11-18T00:44:55.174Z,982.05
2022-11-18T00:45:55.214Z,982.06
2022-11-18T00:46:55.146Z,982.06
2022-11-18T00:47:55.151Z,982.05
2022-11-18T00:48:55.141Z,982.05
2022-11-18T00:49:55.119Z,982.08
2022-11-18T00:50:55.139Z,982.13
2022-11-18T00:51:55.104Z,982.07
2022-11-18T00:52:55.162Z,982.03
2022-11-18T00:53:55.066Z,982.13
2022-11-18T00:54:55.048Z,982.03
2022-11-18T00:55:55.066Z,982.04
2022-11-18T00:56:55.036Z,982.04
2022-11-18T00:57:55.035Z,982.08
2022-11-18T00:58:55.032Z,982.09
2022-11-18T00:59:55.013Z,982.13
2022-11-18T01:00:55.024Z,982.08
2022-11-18T01:01:55.058Z,982.11
2022-11-18T01:02:54.959Z,982.13
2022-11-18T01:03:54.951Z,982.13
2022-11-18T01:04:54.991Z,982.09
2022-11-18T01:05:54.979Z,982.09
2022-11-18T01:06:55.041Z,982.08
2022-11-18T01:07:54.900Z,982.09
2022-11-18T01:08:54.882Z,982.09
2022-11-18T01:09:54.933Z,982.05
2022-11-18T01:10:54.879Z,982.07
2022-11-18T01:11:54.866Z,982.09
2022-11-18T01:12:54.854Z,982.11
2022-11-18T01:13:54.830Z,982.10
2022-11-18T01:14:54.813Z,982.09
2022-11-18T01:15:54.861Z,982.09
2022-11-18T01:16:54.816Z,982.10
2022-11-18T01:17:54.925Z,982.10
2022-11-18T01:18:54.762Z,982.04
2022-11-18T01:19:54.763Z,982.06
2022-11-18T01:20:54.785Z,982.04
2022-11-18T01:21:54.748Z,982.01
2022-11-18T01:22:54.746Z,982.01
2022-11-18T01:23:54.742Z,982.03
2022-11-18T01:24:54.714Z,982.04
2022-11-18T01:25:54.716Z,982.00
2022-11-18T01:26:54.683Z,981.98
2022-11-18T01:27:54.668Z,981.98
2022-11-18T01:28:54.684Z,981.95
2022-11-18T01:29:54.680Z,981.95
2022-11-18T01:30:54.659Z,981.98
2022-11-18T01:32:22.906Z,981.99
2022-11-18T01:32:55.624Z,981.97
2022-11-18T01:33:54.618Z,981.96
2022-11-18T01:34:54.586Z,981.98
2022-11-18T01:35:54.626Z,981.95
2022-11-18T01:36:54.554Z,982.01
2022-11-18T01:37:54.561Z,982.04
2022-11-18T01:38:54.551Z,981.98
2022-11-18T01:39:54.583Z,981.99
2022-11-18T01:40:54.506Z,982.03
2022-11-18T01:41:54.530Z,982.02
2022-11-18T01:42:54.512Z,982.02
2022-11-18T01:43:54.510Z,981.99
2022-11-18T01:44:54.490Z,982.01
2022-11-18T01:45:54.491Z,982.02
2022-11-18T01:46:54.476Z,982.03
2022-11-18T01:47:54.442Z,982.01
2022-11-18T01:48:54.464Z,982.03
2022-11-18T01:49:54.442Z,982.10
2022-11-18T01:50:54.419Z,982.06
2022-11-18T01:51:54.394Z,982.10
2022-11-18T01:52:54.380Z,982.03
2022-11-18T01:53:54.395Z,982.08
2022-11-18T01:54:54.371Z,982.05
2022-11-18T01:55:54.377Z,981.99
2022-11-18T01:56:54.345Z,982.05
2022-11-18T01:57:54.338Z,982.01
2022-11-18T01:58:54.336Z,982.05
2022-11-18T01:59:54.315Z,982.03
2022-11-18T02:00:54.327Z,982.03
2022-11-18T02:01:59.484Z,982.02
2022-11-18T02:02:55.276Z,982.01
2022-11-18T02:03:54.243Z,982.01
2022-11-18T02:04:54.234Z,981.98
2022-11-18T02:05:54.223Z,982.01
2022-11-18T02:06:54.296Z,981.97
2022-11-18T02:07:54.227Z,981.96
2022-11-18T02:08:54.197Z,981.99
2022-11-18T02:09:54.172Z,981.96
2022-11-18T02:10:54.169Z,982.01
2022-11-18T02:11:54.241Z,982.00
2022-11-18T02:12:54.154Z,982.01
2022-11-18T02:13:54.158Z,982.03
2022-11-18T02:14:54.131Z,982.08
2022-11-18T02:15:54.110Z,982.06
2022-11-18T02:16:54.107Z,982.03
2022-11-18T02:17:54.121Z,982.05
2022-11-18T02:18:54.085Z,982.11
2022-11-18T02:19:54.056Z,982.09
2022-11-18T02:20:54.047Z,982.11
2022-11-18T02:21:54.056Z,982.04
2022-11-18T02:22:54.037Z,982.04
2022-11-18T02:23:54.006Z,982.05
2022-11-18T02:24:54.012Z,982.03
2022-11-18T02:25:53.978Z,982.02
2022-11-18T02:26:53.976Z,982.05
2022-11-18T02:27:54.934Z,982.06
2022-11-18T02:28:53.969Z,982.06
2022-11-18T02:29:53.961Z,982.08
2022-11-18T02:30:53.928Z,982.06
2022-11-18T02:31:53.933Z,982.08
2022-11-18T02:32:53.927Z,982.08
2022-11-18T02:33:53.922Z,982.13
2022-11-18T02:34:53.892Z,982.11
2022-11-18T02:35:53.867Z,982.07
2022-11-18T02:36:53.858Z,982.11
2022-11-18T02:37:53.860Z,982.17
2022-11-18T02:38:53.860Z,982.16
2022-11-18T02:39:53.871Z,982.18
2022-11-18T02:40:53.823Z,982.19
2022-11-18T02:41:53.803Z,982.20
2022-11-18T02:42:53.828Z,982.19
2022-11-18T02:43:53.771Z,982.19
2022-11-18T02:44:53.774Z,982.23
2022-11-18T02:45:53.780Z,982.22
2022-11-18T02:46:53.765Z,982.26
2022-11-18T02:47:53.733Z,982.29
2022-11-18T02:48:53.746Z,982.25
2022-11-18T02:49:53.703Z,982.27
2022-11-18T02:50:53.693Z,982.26
2022-11-18T02:51:53.728Z,982.29
2022-11-18T02:52:53.663Z,982.29
2022-11-18T02:53:53.708Z,982.35
2022-11-18T02:54:53.633Z,982.38
2022-11-18T02:55:53.642Z,982.32
2022-11-18T02:56:53.628Z,982.29
2022-11-18T02:57:53.639Z,982.29
2022-11-18T02:58:53.641Z,982.28
2022-11-18T02:59:53.595Z,982.26
2022-11-18T03:00:53.574Z,982.25
2022-11-18T03:01:53.687Z,982.31
2022-11-18T03:02:53.576Z,982.29
2022-11-18T03:03:53.565Z,982.36
2022-11-18T03:04:53.564Z,982.34
2022-11-18T03:05:53.515Z,982.38
2022-11-18T03:06:53.538Z,982.38
2022-11-18T03:07:53.499Z,982.41
2022-11-18T03:08:53.760Z,982.47
2022-11-18T03:09:53.467Z,982.46
2022-11-18T03:10:53.456Z,982.44
2022-11-18T03:11:53.463Z,982.46
2022-11-18T03:12:53.507Z,982.53
2022-11-18T03:13:53.448Z,982.55
2022-11-18T03:14:53.417Z,982.50
2022-11-18T03:15:53.414Z,982.54
2022-11-18T03:16:53.423Z,982.58
2022-11-18T03:17:53.370Z,982.54
2022-11-18T03:18:53.424Z,982.55
2022-11-18T03:19:53.350Z,982.60
2022-11-18T03:20:53.340Z,982.58
2022-11-18T03:21:53.344Z,982.59
2022-11-18T03:22:53.353Z,982.59
2022-11-18T03:23:53.325Z,982.59
2022-11-18T03:24:53.394Z,982.66
2022-11-18T03:25:53.272Z,982.61
2022-11-18T03:26:53.294Z,982.67
2022-11-18T03:27:53.287Z,982.64
2022-11-18T03:28:53.255Z,982.64
2022-11-18T03:29:53.273Z,982.66
2022-11-18T03:30:53.265Z,982.67
2022-11-18T03:31:53.211Z,982.70
2022-11-18T03:32:53.219Z,982.66
2022-11-18T03:33:53.183Z,982.68
2022-11-18T03:34:53.189Z,982.67
2022-11-18T03:35:53.184Z,982.64
2022-11-18T03:36:55.268Z,982.68
2022-11-18T03:37:54.156Z,982.63
2022-11-18T03:38:53.144Z,982.62
2022-11-18T03:39:53.149Z,982.62
2022-11-18T03:40:53.142Z,982.56
2022-11-18T03:41:53.114Z,982.59
2022-11-18T03:42:53.088Z,982.59
2022-11-18T03:43:53.075Z,982.55
2022-11-18T03:44:53.089Z,982.59
2022-11-18T03:45:53.059Z,982.57
2022-11-18T03:46:53.081Z,982.57
2022-11-18T03:47:53.044Z,982.60
2022-11-18T03:48:53.018Z,982.64
2022-11-18T03:49:53.042Z,982.62
2022-11-18T03:50:53.012Z,982.62
2022-11-18T03:51:52.985Z,982.61
2022-11-18T03:52:53.030Z,982.65
2022-11-18T03:53:52.957Z,982.69
2022-11-18T03:54:52.968Z,982.67
2022-11-18T03:55:52.935Z,982.68
2022-11-18T03:56:52.920Z,982.69
2022-11-18T03:57:52.920Z,982.75
2022-11-18T03:58:52.959Z,982.69
2022-11-18T03:59:52.902Z,982.75
2022-11-18T04:00:52.888Z,982.74
2022-11-18T04:01:52.922Z,982.78
2022-11-18T04:02:52.862Z,982.74
2022-11-18T04:03:52.846Z,982.77
2022-11-18T04:04:52.983Z,982.72
2022-11-18T04:05:52.853Z,982.76
2022-11-18T04:06:52.829Z,982.71
2022-11-18T04:07:52.780Z,982.76
2022-11-18T04:08:52.813Z,982.75
2022-11-18T04:09:52.784Z,982.75
2022-11-18T04:10:52.795Z,982.73
2022-11-18T04:11:52.757Z,982.75
2022-11-18T04:12:52.724Z,982.77
2022-11-18T04:13:52.732Z,982.76
2022-11-18T04:14:52.738Z,982.82
2022-11-18T04:15:52.725Z,982.78
2022-11-18T04:16:52.702Z,982.82
2022-11-18T04:17:52.686Z,982.79
2022-11-18T04:18:52.696Z,982.81
2022-11-18T04:19:52.665Z,982.80
2022-11-18T04:20:52.632Z,982.77
2022-11-18T04:21:52.660Z,982.84
2022-11-18T04:22:52.627Z,982.86
2022-11-18T04:23:52.618Z,982.89
2022-11-18T04:24:52.627Z,982.90
2022-11-18T04:25:52.604Z,982.98
2022-11-18T04:26:52.559Z,983.02
2022-11-18T04:27:52.584Z,983.04
2022-11-18T04:28:52.545Z,983.06
2022-11-18T04:29:52.559Z,983.04
2022-11-18T04:30:52.528Z,983.08
2022-11-18T04:31:52.518Z,983.05
2022-11-18T04:32:52.526Z,983.05
2022-11-18T04:33:52.521Z,983.05
2022-11-18T04:34:52.486Z,983.07
2022-11-18T04:35:52.471Z,983.09
2022-11-18T04:36:52.467Z,983.06
2022-11-18T04:37:52.455Z,983.02
2022-11-18T04:38:52.469Z,983.07
2022-11-18T04:39:52.450Z,983.04
2022-11-18T04:40:52.431Z,983.07
2022-11-18T04:41:52.420Z,983.05
2022-11-18T04:42:52.401Z,983.07
2022-11-18T04:43:52.391Z,983.06
2022-11-18T04:44:52.411Z,983.06
2022-11-18T04:45:52.391Z,983.11
2022-11-18T04:46:52.356Z,983.17
2022-11-18T04:47:52.362Z,983.13
2022-11-18T04:48:52.323Z,983.13
2022-11-18T04:49:52.320Z,983.20
2022-11-18T04:50:52.280Z,983.16
2022-11-18T04:51:52.314Z,983.21
2022-11-18T04:52:52.304Z,983.21
2022-11-18T04:53:52.260Z,983.19
2022-11-18T04:54:52.261Z,983.24
2022-11-18T04:55:52.254Z,983.25
2022-11-18T04:56:52.253Z,983.26
2022-11-18T04:57:52.233Z,983.29
2022-11-18T04:58:52.206Z,983.32
2022-11-18T04:59:52.270Z,983.32
2022-11-18T05:00:52.218Z,983.26
2022-11-18T05:01:52.198Z,983.30
2022-11-18T05:02:52.144Z,983.28
2022-11-18T05:03:52.137Z,983.31
2022-11-18T05:04:52.141Z,983.32
2022-11-18T05:05:52.117Z,983.36
2022-11-18T05:06:52.304Z,983.38
2022-11-18T05:07:52.098Z,983.38
2022-11-18T05:08:52.102Z,983.38
2022-11-18T05:09:52.083Z,983.35
2022-11-18T05:10:52.043Z,983.38
2022-11-18T05:11:52.054Z,983.42
2022-11-18T05:12:52.024Z,983.41
2022-11-18T05:13:52.055Z,983.40
2022-11-18T05:14:52.027Z,983.41
2022-11-18T05:15:52.004Z,983.45
2022-11-18T05:16:52.000Z,983.43
2022-11-18T05:17:51.972Z,983.45
2022-11-18T05:18:51.964Z,983.46
2022-11-18T05:19:51.966Z,983.47
2022-11-18T05:20:51.937Z,983.51
2022-11-18T05:21:51.936Z,983.48
2022-11-18T05:22:51.945Z,983.53
2022-11-18T05:23:51.886Z,983.49
2022-11-18T05:24:51.897Z,983.51
2022-11-18T05:25:51.890Z,983.47
2022-11-18T05:26:51.921Z,983.50
2022-11-18T05:27:51.863Z,983.46
2022-11-18T05:28:51.890Z,983.50
2022-11-18T05:29:51.842Z,983.53
2022-11-18T05:30:51.836Z,983.51
2022-11-18T05:31:51.848Z,983.50
2022-11-18T05:32:51.799Z,983.52
2022-11-18T05:33:51.788Z,983.53
2022-11-18T05:34:51.806Z,983.60
2022-11-18T05:35:55.150Z,983.57
2022-11-18T05:36:51.772Z,983.60
2022-11-18T05:37:51.744Z,983.61
2022-11-18T05:38:51.734Z,983.60
2022-11-18T05:39:51.712Z,983.65
2022-11-18T05:40:51.745Z,983.63
2022-11-18T05:41:51.700Z,983.64
2022-11-18T05:42:51.671Z,983.66
2022-11-18T05:43:51.684Z,983.65
2022-11-18T05:44:56.398Z,983.68
2022-11-18T05:45:52.682Z,983.69
2022-11-18T05:46:51.656Z,983.71
2022-11-18T05:47:51.611Z,983.76
2022-11-18T05:48:51.592Z,983.71
2022-11-18T05:49:51.584Z,983.72
2022-11-18T05:50:51.616Z,983.79
2022-11-18T05:51:51.590Z,983.75
2022-11-18T05:52:51.569Z,983.80
2022-11-18T05:53:51.556Z,983.80
2022-11-18T05:54:51.607Z,983.78
2022-11-18T05:55:51.528Z,983.75
2022-11-18T05:56:51.544Z,983.81
2022-11-18T05:57:51.495Z,983.87
2022-11-18T05:58:51.501Z,983.82
2022-11-18T05:59:51.485Z,983.83
2022-11-18T06:00:51.498Z,983.84
2022-11-18T06:01:51.496Z,983.86
2022-11-18T06:02:51.598Z,983.88
2022-11-18T06:03:51.424Z,983.91
2022-11-18T06:04:51.431Z,983.87
2022-11-18T06:05:51.419Z,983.88
2022-11-18T06:06:51.435Z,983.87
2022-11-18T06:07:51.416Z,983.91
2022-11-18T06:08:51.382Z,983.92
2022-11-18T06:09:51.371Z,983.95
2022-11-18T06:10:51.361Z,983.95
2022-11-18T06:11:51.351Z,983.99
2022-11-18T06:12:51.417Z,983.97
2022-11-18T06:13:51.321Z,984.02
2022-11-18T06:14:51.371Z,984.03
2022-11-18T06:15:51.291Z,984.02
2022-11-18T06:16:51.293Z,984.02
2022-11-18T06:17:51.291Z,984.03
2022-11-18T06:18:51.279Z,984.00
2022-11-18T06:19:51.263Z,984.00
2022-11-18T06:20:51.221Z,984.04
2022-11-18T06:21:51.209Z,983.97
2022-11-18T06:22:51.235Z,984.02
2022-11-18T06:23:51.286Z,983.98
2022-11-18T06:24:51.424Z,983.99
2022-11-18T06:25:51.174Z,983.99
2022-11-18T06:26:51.164Z,983.96
2022-11-18T06:27:51.144Z,983.97
2022-11-18T06:28:51.166Z,984.03
2022-11-18T06:29:51.150Z,983.99
2022-11-18T06:30:51.114Z,984.03
2022-11-18T06:31:51.093Z,984.06
2022-11-18T06:32:51.119Z,984.07
2022-11-18T06:33:51.086Z,984.12
2022-11-18T06:34:51.101Z,984.08
2022-11-18T06:35:51.076Z,984.11
2022-11-18T06:36:51.054Z,984.12
2022-11-18T06:37:51.084Z,984.19
2022-11-18T06:38:51.053Z,984.17
2022-11-18T06:39:51.035Z,984.20
2022-11-18T06:40:50.993Z,984.18
2022-11-18T06:41:51.026Z,984.25
2022-11-18T06:42:51.010Z,984.23
2022-11-18T06:43:50.979Z,984.31
2022-11-18T06:44:51.016Z,984.29
2022-11-18T06:45:50.936Z,984.30
2022-11-18T06:46:50.972Z,984.30
2022-11-18T06:47:50.907Z,984.26
2022-11-18T06:48:50.922Z,984.27
2022-11-18T06:49:50.896Z,984.31
2022-11-18T06:50:50.878Z,984.35
2022-11-18T06:51:50.877Z,984.32
2022-11-18T06:52:51.600Z,984.31
2022-11-18T06:53:50.855Z,984.39
2022-11-18T06:54:50.828Z,984.36
2022-11-18T06:55:50.842Z,984.38
2022-11-18T06:56:50.818Z,984.38
2022-11-18T06:57:50.831Z,984.39
2022-11-18T06:58:50.801Z,984.37
2022-11-18T06:59:50.785Z,984.40
2022-11-18T07:00:50.850Z,984.45
2022-11-18T07:01:50.751Z,984.48
2022-11-18T07:02:51.105Z,984.51
2022-11-18T07:03:50.775Z,984.52
2022-11-18T07:04:50.703Z,984.55
2022-11-18T07:05:50.691Z,984.52
2022-11-18T07:06:50.713Z,984.53
2022-11-18T07:07:50.723Z,984.58
2022-11-18T07:08:51.009Z,984.57
2022-11-18T07:09:50.730Z,984.57
2022-11-18T07:10:50.654Z,984.58
2022-11-18T07:11:50.646Z,984.60
2022-11-18T07:12:50.642Z,984.62
2022-11-18T07:13:50.612Z,984.62
2022-11-18T07:14:50.601Z,984.67
2022-11-18T07:15:50.618Z,984.64
2022-11-18T07:16:50.586Z,984.67
2022-11-18T07:17:50.573Z,984.68
2022-11-18T07:18:50.548Z,984.71
2022-11-18T07:19:50.545Z,984.71
2022-11-18T07:20:50.557Z,984.72
2022-11-18T07:21:50.512Z,984.70
2022-11-18T07:22:50.526Z,984.74
2022-11-18T07:23:50.509Z,984.73
2022-11-18T07:24:50.479Z,984.69
2022-11-18T07:25:50.482Z,984.73
2022-11-18T07:26:50.767Z,984.75
2022-11-18T07:27:50.460Z,984.74
2022-11-18T07:28:50.458Z,984.71
2022-11-18T07:29:50.432Z,984.78
2022-11-18T07:30:50.425Z,984.75
2022-11-18T07:31:50.425Z,984.69
2022-11-18T07:32:50.398Z,984.79
2022-11-18T07:33:50.401Z,984.76
2022-11-18T07:34:50.355Z,984.72
2022-11-18T07:35:50.351Z,984.75
2022-11-18T07:36:50.359Z,984.70
2022-11-18T07:37:50.343Z,984.78
2022-11-18T07:38:50.307Z,984.76
2022-11-18T07:39:50.336Z,984.78
2022-11-18T07:40:50.285Z,984.76
2022-11-18T07:41:50.327Z,984.78
2022-11-18T07:42:50.281Z,984.79
2022-11-18T07:43:50.239Z,984.82
2022-11-18T07:44:50.250Z,984.82
2022-11-18T07:45:50.271Z,984.84
2022-11-18T07:46:50.271Z,984.81
2022-11-18T07:47:50.275Z,984.81
2022-11-18T07:48:50.353Z,984.80
2022-11-18T07:49:50.188Z,984.77
2022-11-18T07:50:50.174Z,984.83
2022-11-18T07:51:50.242Z,984.87
2022-11-18T07:52:50.224Z,984.88
2022-11-18T07:53:50.140Z,984.94
2022-11-18T07:54:50.121Z,984.93
2022-11-18T07:55:50.115Z,984.99
2022-11-18T07:56:50.100Z,984.99
2022-11-18T07:57:50.129Z,985.01
2022-11-18T07:58:50.070Z,985.06
2022-11-18T07:59:50.110Z,985.05
2022-11-18T08:00:50.050Z,985.08
2022-11-18T08:01:50.238Z,985.08
2022-11-18T08:02:50.117Z,985.12
2022-11-18T08:03:50.081Z,985.13
2022-11-18T08:04:50.053Z,985.14
2022-11-18T08:05:50.019Z,985.16
2022-11-18T08:06:49.988Z,985.17
2022-11-18T08:07:49.997Z,985.20
2022-11-18T08:08:49.997Z,985.19
2022-11-18T08:09:49.965Z,985.18
2022-11-18T08:10:49.925Z,985.19
2022-11-18T08:11:49.948Z,985.19
2022-11-18T08:12:49.928Z,985.18
2022-11-18T08:13:49.944Z,985.22
2022-11-18T08:14:49.904Z,985.21
2022-11-18T08:15:49.875Z,985.25
2022-11-18T08:16:49.898Z,985.31
2022-11-18T08:17:49.868Z,985.28
2022-11-18T08:18:49.904Z,985.29
2022-11-18T08:19:49.901Z,985.29
2022-11-18T08:20:49.830Z,985.35
2022-11-18T08:21:49.816Z,985.33
2022-11-18T08:22:50.123Z,985.31
2022-11-18T08:23:49.836Z,985.33
2022-11-18T08:24:49.758Z,985.36
2022-11-18T08:25:49.885Z,985.34
2022-11-18T08:26:49.754Z,985.34
2022-11-18T08:27:49.772Z,985.37
2022-11-18T08:28:49.767Z,985.33
2022-11-18T08:29:49.949Z,985.41
2022-11-18T08:30:49.749Z,985.40
2022-11-18T08:31:49.670Z,985.35
2022-11-18T08:32:49.672Z,985.36
2022-11-18T08:33:49.680Z,985.40
2022-11-18T08:34:49.670Z,985.44
2022-11-18T08:35:49.717Z,985.42
2022-11-18T08:36:49.691Z,985.40
2022-11-18T08:37:49.675Z,985.44
2022-11-18T08:38:49.608Z,985.44
2022-11-18T08:39:49.651Z,985.47
2022-11-18T08:40:49.572Z,985.52
2022-11-18T08:41:49.635Z,985.51
2022-11-18T08:42:49.605Z,985.51
2022-11-18T08:43:49.554Z,985.55
2022-11-18T08:44:49.561Z,985.55
2022-11-18T08:45:49.536Z,985.59
2022-11-18T08:46:49.585Z,985.56
2022-11-18T08:47:49.506Z,985.57
2022-11-18T08:48:49.517Z,985.61
2022-11-18T08:49:49.477Z,985.59
2022-11-18T08:50:49.461Z,985.59
2022-11-18T08:51:49.473Z,985.65
2022-11-18T08:52:49.477Z,985.63
2022-11-18T08:53:49.485Z,985.66
2022-11-18T08:54:49.443Z,985.64
2022-11-18T08:55:53.044Z,985.66
2022-11-18T08:56:50.424Z,985.74
2022-11-18T08:57:49.518Z,985.76
2022-11-18T08:58:49.434Z,985.76
2022-11-18T08:59:49.392Z,985.76
2022-11-18T09:00:49.346Z,985.76
2022-11-18T09:01:49.397Z,985.82
2022-11-18T09:02:49.384Z,985.75
2022-11-18T09:03:49.349Z,985.73
2022-11-18T09:04:49.310Z,985.80
2022-11-18T09:05:49.286Z,985.87
2022-11-18T09:06:49.286Z,985.83
2022-11-18T09:07:49.326Z,985.82
2022-11-18T09:08:49.268Z,985.83
2022-11-18T09:09:49.255Z,985.82
2022-11-18T09:10:49.251Z,985.89
2022-11-18T09:11:49.213Z,985.85
2022-11-18T09:12:49.221Z,985.88
2022-11-18T09:15:50.188Z,985.94
2022-11-18T09:16:49.150Z,985.97
2022-11-18T09:17:49.158Z,985.94
2022-11-18T09:18:49.167Z,985.94
2022-11-18T09:19:49.169Z,985.91
2022-11-18T09:20:49.099Z,985.90
2022-11-18T09:21:49.091Z,985.92
2022-11-18T09:22:49.097Z,985.96
2022-11-18T09:23:49.098Z,985.89
2022-11-18T09:24:49.089Z,985.98
2022-11-18T09:25:49.139Z,985.99
2022-11-18T09:26:49.046Z,985.98
2022-11-18T09:27:49.024Z,985.98
2022-11-18T09:28:49.029Z,985.97
2022-11-18T09:29:48.992Z,986.05
2022-11-18T09:30:48.982Z,986.07
2022-11-18T09:31:49.060Z,986.04
2022-11-18T09:32:48.993Z,986.12
2022-11-18T09:33:48.952Z,986.12
2022-11-18T09:34:48.984Z,986.15
2022-11-18T09:35:48.945Z,986.23
2022-11-18T09:36:48.975Z,986.18
2022-11-18T09:37:48.957Z,986.18
2022-11-18T09:38:53.011Z,986.20
2022-11-18T09:39:48.908Z,986.19
2022-11-18T09:40:48.881Z,986.21
2022-11-18T09:41:48.889Z,986.24
2022-11-18T09:42:48.914Z,986.24
2022-11-18T09:43:48.814Z,986.23
2022-11-18T09:44:48.864Z,986.27
2022-11-18T09:45:48.802Z,986.27
2022-11-18T09:46:48.800Z,986.32
2022-11-18T09:47:48.852Z,986.35
2022-11-18T09:48:49.221Z,986.32
2022-11-18T09:49:49.838Z,986.37
2022-11-18T09:50:50.440Z,986.34
2022-11-18T09:51:48.748Z,986.45
2022-11-18T09:52:48.760Z,986.41
2022-11-18T09:53:48.745Z,986.43
2022-11-18T09:54:49.770Z,986.37
2022-11-18T09:55:48.695Z,986.39
2022-11-18T09:56:48.775Z,986.44
2022-11-18T09:57:48.703Z,986.45
2022-11-18T09:58:48.688Z,986.50
2022-11-18T09:59:48.634Z,986.49
2022-11-18T10:00:48.648Z,986.46
2022-11-18T10:01:48.716Z,986.47
2022-11-18T10:02:48.631Z,986.45
2022-11-18T10:03:48.608Z,986.49
2022-11-18T10:04:48.632Z,986.52
2022-11-18T10:05:48.584Z,986.52
2022-11-18T10:06:48.574Z,986.53
2022-11-18T10:07:48.901Z,986.53
2022-11-18T10:08:48.541Z,986.51
2022-11-18T10:09:48.531Z,986.47
2022-11-18T10:10:51.710Z,986.53
2022-11-18T10:11:51.959Z,986.54
2022-11-18T10:12:48.491Z,986.51
2022-11-18T10:13:48.529Z,986.60
2022-11-18T10:14:48.545Z,986.56
2022-11-18T10:15:48.490Z,986.54
2022-11-18T10:16:48.465Z,986.60
2022-11-18T10:17:48.435Z,986.56
2022-11-18T10:19:03.820Z,986.63
2022-11-18T10:19:49.396Z,986.61
2022-11-18T10:20:48.416Z,986.62
2022-11-18T10:21:48.375Z,986.64
2022-11-18T10:22:48.376Z,986.65
2022-11-18T10:23:51.376Z,986.61
2022-11-18T10:24:48.346Z,986.67
2022-11-18T10:25:48.356Z,986.68
2022-11-18T10:26:49.716Z,986.66
2022-11-18T10:27:49.416Z,986.68
2022-11-18T10:28:48.343Z,986.68
2022-11-18T10:29:48.265Z,986.67
2022-11-18T10:30:48.275Z,986.72
2022-11-18T10:31:48.272Z,986.70
2022-11-18T10:32:48.361Z,986.71
2022-11-18T10:33:48.258Z,986.70
2022-11-18T10:34:48.228Z,986.74
2022-11-18T10:35:48.209Z,986.82
2022-11-18T10:36:48.229Z,986.75
2022-11-18T10:38:07.205Z,986.78
2022-11-18T10:38:50.322Z,986.82
2022-11-18T10:39:48.200Z,986.85
2022-11-18T10:40:48.167Z,986.86
2022-11-18T10:41:48.136Z,986.90
2022-11-18T10:42:48.140Z,986.92
2022-11-18T10:43:48.152Z,986.87
2022-11-18T10:44:48.337Z,986.87
2022-11-18T10:45:48.239Z,986.91
2022-11-18T10:46:48.092Z,986.92
2022-11-18T10:47:48.072Z,986.99
2022-11-18T10:48:48.287Z,987.05
2022-11-18T10:49:52.220Z,987.03
2022-11-18T10:50:53.518Z,987.01
2022-11-18T10:51:49.065Z,987.02
2022-11-18T10:52:47.990Z,987.03
2022-11-18T10:53:47.999Z,987.04
2022-11-18T10:54:47.979Z,987.02
2022-11-18T10:55:48.023Z,987.03
2022-11-18T10:56:49.494Z,987.00
2022-11-18T10:57:47.984Z,987.06
2022-11-18T10:58:47.972Z,987.03
2022-11-18T10:59:47.940Z,987.07
2022-11-18T11:00:48.115Z,987.07
2022-11-18T11:01:47.946Z,987.04
2022-11-18T11:02:47.903Z,987.06
2022-11-18T11:03:47.871Z,987.03
2022-11-18T11:04:47.881Z,987.07
2022-11-18T11:05:47.893Z,987.02
2022-11-18T11:06:47.882Z,987.09
2022-11-18T11:07:47.846Z,987.09
2022-11-18T11:08:47.851Z,987.16
2022-11-18T11:09:47.853Z,987.12
2022-11-18T11:10:52.478Z,987.14
2022-11-18T11:11:48.819Z,987.21
2022-11-18T11:12:47.836Z,987.14
2022-11-18T11:13:47.746Z,987.21
2022-11-18T11:14:47.783Z,987.18
2022-11-18T11:15:47.745Z,987.18
2022-11-18T11:16:47.808Z,987.22
2022-11-18T11:17:47.757Z,987.24
2022-11-18T11:18:48.410Z,987.21
2022-11-18T11:19:47.741Z,987.24
2022-11-18T11:20:47.654Z,987.25
2022-11-18T11:21:47.719Z,987.26
2022-11-18T11:22:47.663Z,987.29
2022-11-18T11:23:47.625Z,987.29
2022-11-18T11:24:47.617Z,987.35
2022-11-18T11:28:48.574Z,987.40
2022-11-18T11:29:47.587Z,987.36
2022-11-18T11:30:47.743Z,987.37
2022-11-18T11:31:47.533Z,987.35
2022-11-18T11:32:47.525Z,987.40
2022-11-18T11:33:47.528Z,987.33
2022-11-18T11:34:47.519Z,987.43
2022-11-18T11:35:47.520Z,987.40
2022-11-18T11:36:47.466Z,987.40
2022-11-18T11:37:47.484Z,987.37
2022-11-18T11:38:47.462Z,987.40
2022-11-18T11:39:47.488Z,987.40
2022-11-18T11:40:47.690Z,987.46
2022-11-18T11:41:47.448Z,987.43
2022-11-18T11:42:47.557Z,987.49
2022-11-18T11:43:47.410Z,987.45
2022-11-18T11:44:47.412Z,987.49
2022-11-18T11:45:47.364Z,987.45
2022-11-18T11:46:47.380Z,987.48
2022-11-18T11:47:47.361Z,987.50
2022-11-18T11:48:47.402Z,987.52
2022-11-18T11:49:47.332Z,987.51
2022-11-18T11:50:52.965Z,987.51
2022-11-18T11:51:48.281Z,987.55
2022-11-18T11:52:47.299Z,987.52
2022-11-18T11:53:47.332Z,987.55
2022-11-18T11:54:47.259Z,987.58
2022-11-18T11:55:47.406Z,987.66
2022-11-18T11:56:47.265Z,987.68
2022-11-18T11:57:47.264Z,987.67
2022-11-18T11:58:47.274Z,987.71
2022-11-18T11:59:47.200Z,987.72
2022-11-18T12:00:47.235Z,987.73
2022-11-18T12:01:47.224Z,987.71
2022-11-18T12:02:47.194Z,987.74
2022-11-18T12:03:51.657Z,987.72
2022-11-18T12:04:47.265Z,987.78
2022-11-18T12:05:47.140Z,987.80
2022-11-18T12:06:47.133Z,987.76
2022-11-18T12:07:47.162Z,987.78
2022-11-18T12:08:47.128Z,987.79
2022-11-18T12:09:48.234Z,987.85
2022-11-18T12:10:47.082Z,987.81
2022-11-18T12:11:47.086Z,987.84
2022-11-18T12:12:47.057Z,987.86
2022-11-18T12:13:47.059Z,987.92
2022-11-18T12:14:47.041Z,987.85
2022-11-18T12:15:47.059Z,987.86
2022-11-18T12:16:46.988Z,987.87
2022-11-18T12:17:47.057Z,987.88
2022-11-18T12:18:46.979Z,987.91
2022-11-18T12:19:46.999Z,987.89
2022-11-18T12:20:46.945Z,987.86
2022-11-18T12:21:47.041Z,987.89
2022-11-18T12:22:46.931Z,987.91
2022-11-18T12:23:46.936Z,987.85
2022-11-18T12:24:46.908Z,987.89
2022-11-18T12:25:46.885Z,987.90
2022-11-18T12:26:46.956Z,987.95
2022-11-18T12:27:46.900Z,987.95
2022-11-18T12:28:46.859Z,987.97
2022-11-18T12:29:46.849Z,987.96
2022-11-18T12:30:46.866Z,988.02
2022-11-18T12:31:46.864Z,988.03
2022-11-18T12:32:47.089Z,987.98
2022-11-18T12:33:46.841Z,988.06